sensor_id;sensor_type;location;lat;lon;timestamp;pressure;altitude;pressure_sealevel;temperature;humidity
64821;BME280;51256;55.654;37.264;2022-10-26T00:01:10;99550.63;;;1.12;69.94
64821;BME280;51256;55.654;37.264;2022-10-26T00:03:38;99554.06;;;1.12;69.95
64821;BME280;51256;55.654;37.264;2022-10-26T00:06:17;99549.63;;;1.15;69.96
64821;BME280;51256;55.654;37.264;2022-10-26T00:08:43;99555.69;;;1.15;69.67
64821;BME280;51256;55.654;37.264;2022-10-26T00:11:10;99552.91;;;1.18;69.96
64821;BME280;51256;55.654;37.264;2022-10-26T00:13:36;99552.69;;;1.23;70.09
64821;BME280;51256;55.654;37.264;2022-10-26T00:16:23;99550.66;;;1.28;69.94
64821;BME280;51256;55.654;37.264;2022-10-26T00:18:49;99543.63;;;1.28;69.67
64821;BME280;51256;55.654;37.264;2022-10-26T00:21:15;99536.72;;;1.27;69.91
64821;BME280;51256;55.654;37.264;2022-10-26T00:23:41;99547.13;;;1.29;69.96
64821;BME280;51256;55.654;37.264;2022-10-26T00:26:07;99542.53;;;1.33;69.64
64821;BME280;51256;55.654;37.264;2022-10-26T00:28:33;99547.63;;;1.36;69.58
64821;BME280;51256;55.654;37.264;2022-10-26T00:31:06;99543.16;;;1.38;69.20
64821;BME280;51256;55.654;37.264;2022-10-26T00:33:32;99544.75;;;1.40;69.73
64821;BME280;51256;55.654;37.264;2022-10-26T00:35:58;99536.03;;;1.40;69.41
64821;BME280;51256;55.654;37.264;2022-10-26T00:38:24;99541.13;;;1.43;69.25
64821;BME280;51256;55.654;37.264;2022-10-26T00:40:49;99543.91;;;1.40;69.48
64821;BME280;51256;55.654;37.264;2022-10-26T00:45:48;99547.97;;;1.45;69.55
64821;BME280;51256;55.654;37.264;2022-10-26T00:50:46;99542.72;;;1.45;69.20
64821;BME280;51256;55.654;37.264;2022-10-26T00:53:12;99547.97;;;1.45;69.33
64821;BME280;51256;55.654;37.264;2022-10-26T00:55:41;99541.97;;;1.43;69.63
64821;BME280;51256;55.654;37.264;2022-10-26T00:58:09;99542.47;;;1.50;69.31
64821;BME280;51256;55.654;37.264;2022-10-26T01:00:35;99540.59;;;1.52;69.60
64821;BME280;51256;55.654;37.264;2022-10-26T01:03:05;99541.38;;;1.54;69.36
64821;BME280;51256;55.654;37.264;2022-10-26T01:05:32;99530.63;;;1.59;69.34
64821;BME280;51256;55.654;37.264;2022-10-26T01:07:59;99533.94;;;1.62;69.08
64821;BME280;51256;55.654;37.264;2022-10-26T01:10:26;99518.66;;;1.55;68.92
64821;BME280;51256;55.654;37.264;2022-10-26T01:12:53;99528.28;;;1.54;68.93
64821;BME280;51256;55.654;37.264;2022-10-26T01:15:24;99538.41;;;1.60;69.24
64821;BME280;51256;55.654;37.264;2022-10-26T01:17:56;99538.16;;;1.65;69.42
64821;BME280;51256;55.654;37.264;2022-10-26T01:20:38;99534.50;;;1.68;69.14
64821;BME280;51256;55.654;37.264;2022-10-26T01:29:27;99534.59;;;1.66;69.25
64821;BME280;51256;55.654;37.264;2022-10-26T01:32:22;99533.50;;;1.70;68.87
64821;BME280;51256;55.654;37.264;2022-10-26T01:35:02;99523.13;;;1.69;68.78
64821;BME280;51256;55.654;37.264;2022-10-26T01:37:29;99526.25;;;1.75;68.53
64821;BME280;51256;55.654;37.264;2022-10-26T01:40:19;99520.59;;;1.67;68.60
64821;BME280;51256;55.654;37.264;2022-10-26T01:42:48;99513.19;;;1.59;68.95
64821;BME280;51256;55.654;37.264;2022-10-26T01:45:16;99517.88;;;1.53;68.97
64821;BME280;51256;55.654;37.264;2022-10-26T01:47:43;99528.53;;;1.50;69.27
64821;BME280;51256;55.654;37.264;2022-10-26T01:50:10;99515.88;;;1.42;69.44
64821;BME280;51256;55.654;37.264;2022-10-26T01:52:36;99519.63;;;1.38;69.35
64821;BME280;51256;55.654;37.264;2022-10-26T02:00:55;99526.16;;;1.13;70.09
64821;BME280;51256;55.654;37.264;2022-10-26T02:03:32;99535.16;;;1.07;70.39
64821;BME280;51256;55.654;37.264;2022-10-26T02:08:55;99531.38;;;0.97;71.02
64821;BME280;51256;55.654;37.264;2022-10-26T02:11:31;99528.06;;;0.93;71.11
64821;BME280;51256;55.654;37.264;2022-10-26T02:19:41;99528.47;;;0.86;70.80
64821;BME280;51256;55.654;37.264;2022-10-26T02:22:24;99535.53;;;0.84;71.29
64821;BME280;51256;55.654;37.264;2022-10-26T02:24:52;99534.03;;;0.79;71.39
64821;BME280;51256;55.654;37.264;2022-10-26T02:27:30;99537.56;;;0.78;71.54
64821;BME280;51256;55.654;37.264;2022-10-26T02:29:58;99542.09;;;0.75;71.48
64821;BME280;51256;55.654;37.264;2022-10-26T02:32:26;99538.78;;;0.71;71.82
64821;BME280;51256;55.654;37.264;2022-10-26T02:34:54;99534.66;;;0.67;71.74
64821;BME280;51256;55.654;37.264;2022-10-26T02:37:21;99531.03;;;0.70;71.93
64821;BME280;51256;55.654;37.264;2022-10-26T02:39:49;99523.44;;;0.65;71.50
64821;BME280;51256;55.654;37.264;2022-10-26T02:42:17;99530.44;;;0.64;71.90
64821;BME280;51256;55.654;37.264;2022-10-26T02:44:59;99543.59;;;0.63;72.21
64821;BME280;51256;55.654;37.264;2022-10-26T02:47:27;99537.81;;;0.56;71.99
64821;BME280;51256;55.654;37.264;2022-10-26T02:49:54;99545.59;;;0.58;71.97
64821;BME280;51256;55.654;37.264;2022-10-26T02:55:35;99545.00;;;0.53;72.50
64821;BME280;51256;55.654;37.264;2022-10-26T02:58:08;99540.69;;;0.52;72.40
64821;BME280;51256;55.654;37.264;2022-10-26T03:00:36;99532.91;;;0.50;72.33
64821;BME280;51256;55.654;37.264;2022-10-26T03:03:03;99535.50;;;0.50;72.50
64821;BME280;51256;55.654;37.264;2022-10-26T03:05:30;99535.50;;;0.50;72.57
64821;BME280;51256;55.654;37.264;2022-10-26T03:08:01;99531.84;;;0.54;72.19
64821;BME280;51256;55.654;37.264;2022-10-26T03:10:27;99524.00;;;0.54;72.30
64821;BME280;51256;55.654;37.264;2022-10-26T03:12:53;99518.69;;;0.56;72.18
64821;BME280;51256;55.654;37.264;2022-10-26T03:15:18;99520.31;;;0.58;72.43
64821;BME280;51256;55.654;37.264;2022-10-26T03:17:44;99510.78;;;0.57;72.53
64821;BME280;51256;55.654;37.264;2022-10-26T03:20:10;99512.69;;;0.54;72.44
64821;BME280;51256;55.654;37.264;2022-10-26T03:22:35;99513.06;;;0.63;72.48
64821;BME280;51256;55.654;37.264;2022-10-26T03:25:01;99504.91;;;0.70;72.50
64821;BME280;51256;55.654;37.264;2022-10-26T03:27:27;99513.34;;;0.75;72.28
64821;BME280;51256;55.654;37.264;2022-10-26T03:29:52;99511.28;;;0.82;71.70
64821;BME280;51256;55.654;37.264;2022-10-26T03:32:19;99514.41;;;0.88;71.70
64821;BME280;51256;55.654;37.264;2022-10-26T03:34:44;99508.16;;;0.91;71.38
64821;BME280;51256;55.654;37.264;2022-10-26T03:37:10;99514.16;;;0.93;71.64
64821;BME280;51256;55.654;37.264;2022-10-26T03:39:35;99514.84;;;0.96;71.43
64821;BME280;51256;55.654;37.264;2022-10-26T03:42:01;99512.28;;;0.95;71.10
64821;BME280;51256;55.654;37.264;2022-10-26T03:44:26;99516.44;;;0.99;70.98
64821;BME280;51256;55.654;37.264;2022-10-26T03:46:52;99533.16;;;1.12;71.06
64821;BME280;51256;55.654;37.264;2022-10-26T03:49:17;99529.47;;;1.17;70.90
64821;BME280;51256;55.654;37.264;2022-10-26T03:51:43;99531.06;;;1.19;70.95
64821;BME280;51256;55.654;37.264;2022-10-26T03:54:08;99532.59;;;1.23;71.06
64821;BME280;51256;55.654;37.264;2022-10-26T03:56:34;99529.03;;;1.24;70.45
64821;BME280;51256;55.654;37.264;2022-10-26T03:58:59;99523.22;;;1.19;70.71
64821;BME280;51256;55.654;37.264;2022-10-26T04:01:25;99532.59;;;1.23;70.67
64821;BME280;51256;55.654;37.264;2022-10-26T04:03:50;99519.59;;;1.22;70.43
64821;BME280;51256;55.654;37.264;2022-10-26T04:06:15;99530.75;;;1.25;70.29
64821;BME280;51256;55.654;37.264;2022-10-26T04:08:41;99525.41;;;1.27;70.48
64821;BME280;51256;55.654;37.264;2022-10-26T04:11:06;99525.50;;;1.25;70.42
64821;BME280;51256;55.654;37.264;2022-10-26T04:13:32;99533.19;;;1.28;70.63
64821;BME280;51256;55.654;37.264;2022-10-26T04:15:57;99532.16;;;1.31;70.47
64821;BME280;51256;55.654;37.264;2022-10-26T04:18:23;99538.84;;;1.37;70.17
64821;BME280;51256;55.654;37.264;2022-10-26T04:20:48;99541.19;;;1.41;70.15
64821;BME280;51256;55.654;37.264;2022-10-26T04:23:16;99544.25;;;1.50;70.06
64821;BME280;51256;55.654;37.264;2022-10-26T04:25:43;99546.53;;;1.56;70.38
64821;BME280;51256;55.654;37.264;2022-10-26T04:28:09;99547.94;;;1.61;69.99
64821;BME280;51256;55.654;37.264;2022-10-26T04:30:36;99558.69;;;1.73;70.07
64821;BME280;51256;55.654;37.264;2022-10-26T04:33:02;99563.56;;;1.79;69.81
64821;BME280;51256;55.654;37.264;2022-10-26T04:35:28;99559.41;;;1.75;69.47
64821;BME280;51256;55.654;37.264;2022-10-26T04:38:03;99560.34;;;1.74;69.72
64821;BME280;51256;55.654;37.264;2022-10-26T04:40:29;99561.63;;;1.67;69.76
64821;BME280;51256;55.654;37.264;2022-10-26T04:42:56;99564.16;;;1.68;69.57
64821;BME280;51256;55.654;37.264;2022-10-26T04:45:21;99555.63;;;1.65;69.77
64821;BME280;51256;55.654;37.264;2022-10-26T04:47:47;99565.00;;;1.69;69.47
64821;BME280;51256;55.654;37.264;2022-10-26T04:50:22;99569.56;;;1.81;69.45
64821;BME280;51256;55.654;37.264;2022-10-26T04:52:49;99566.44;;;1.90;69.44
64821;BME280;51256;55.654;37.264;2022-10-26T04:55:15;99550.06;;;1.87;69.08
64821;BME280;51256;55.654;37.264;2022-10-26T04:57:43;99566.81;;;1.99;69.01
64821;BME280;51256;55.654;37.264;2022-10-26T05:00:09;99568.19;;;1.90;68.83
64821;BME280;51256;55.654;37.264;2022-10-26T05:02:35;99565.00;;;1.85;69.12
64821;BME280;51256;55.654;37.264;2022-10-26T05:05:00;99555.00;;;1.91;68.89
64821;BME280;51256;55.654;37.264;2022-10-26T05:07:26;99553.59;;;1.86;68.77
64821;BME280;51256;55.654;37.264;2022-10-26T05:09:52;99560.44;;;1.88;68.40
64821;BME280;51256;55.654;37.264;2022-10-26T05:12:17;99552.81;;;1.84;68.60
64821;BME280;51256;55.654;37.264;2022-10-26T05:14:43;99536.78;;;1.74;68.48
64821;BME280;51256;55.654;37.264;2022-10-26T05:17:09;99545.94;;;1.67;68.41
64821;BME280;51256;55.654;37.264;2022-10-26T05:19:34;99539.25;;;1.61;68.68
64821;BME280;51256;55.654;37.264;2022-10-26T05:21:59;99549.97;;;1.72;68.39
64821;BME280;51256;55.654;37.264;2022-10-26T05:24:25;99553.25;;;1.76;68.68
64821;BME280;51256;55.654;37.264;2022-10-26T05:26:50;99551.31;;;1.80;68.17
64821;BME280;51256;55.654;37.264;2022-10-26T05:29:16;99553.69;;;1.84;68.29
64821;BME280;51256;55.654;37.264;2022-10-26T05:31:41;99552.56;;;1.88;68.17
64821;BME280;51256;55.654;37.264;2022-10-26T05:34:07;99551.38;;;1.94;67.83
64821;BME280;51256;55.654;37.264;2022-10-26T05:36:32;99547.75;;;1.97;68.32
64821;BME280;51256;55.654;37.264;2022-10-26T05:38:58;99537.19;;;1.98;68.08
64821;BME280;51256;55.654;37.264;2022-10-26T05:41:24;99534.56;;;1.98;67.75
64821;BME280;51256;55.654;37.264;2022-10-26T05:43:49;99543.00;;;2.03;67.82
64821;BME280;51256;55.654;37.264;2022-10-26T05:46:15;99543.69;;;2.07;67.86
64821;BME280;51256;55.654;37.264;2022-10-26T05:48:41;99541.22;;;2.04;67.54
64821;BME280;51256;55.654;37.264;2022-10-26T05:51:06;99523.34;;;1.96;67.71
64821;BME280;51256;55.654;37.264;2022-10-26T05:53:31;99536.91;;;2.03;67.91
64821;BME280;51256;55.654;37.264;2022-10-26T05:55:57;99545.44;;;2.06;67.50
64821;BME280;51256;55.654;37.264;2022-10-26T05:58:23;99551.53;;;2.07;67.67
64821;BME280;51256;55.654;37.264;2022-10-26T06:06:14;99555.75;;;2.09;67.33
64821;BME280;51256;55.654;37.264;2022-10-26T06:08:40;99546.88;;;2.12;67.25
64821;BME280;51256;55.654;37.264;2022-10-26T06:11:07;99545.84;;;2.15;67.20
64821;BME280;51256;55.654;37.264;2022-10-26T06:13:33;99548.13;;;2.21;67.14
64821;BME280;51256;55.654;37.264;2022-10-26T06:24:22;99549.97;;;2.49;66.21
64821;BME280;51256;55.654;37.264;2022-10-26T06:27:09;99547.81;;;2.56;66.21
64821;BME280;51256;55.654;37.264;2022-10-26T06:30:04;99550.75;;;2.66;66.20
64821;BME280;51256;55.654;37.264;2022-10-26T06:32:34;99552.25;;;2.70;65.44
64821;BME280;51256;55.654;37.264;2022-10-26T06:35:24;99558.16;;;2.88;65.20
64821;BME280;51256;55.654;37.264;2022-10-26T06:37:53;99562.38;;;3.05;65.26
64821;BME280;51256;55.654;37.264;2022-10-26T06:40:20;99554.31;;;3.22;64.52
64821;BME280;51256;55.654;37.264;2022-10-26T06:42:46;99555.81;;;3.41;64.12
64821;BME280;51256;55.654;37.264;2022-10-26T06:45:13;99550.50;;;3.55;64.07
64821;BME280;51256;55.654;37.264;2022-10-26T06:48:01;99551.69;;;3.79;63.13
64821;BME280;51256;55.654;37.264;2022-10-26T06:50:39;99564.97;;;3.90;62.68
64821;BME280;51256;55.654;37.264;2022-10-26T06:55:44;99565.59;;;4.21;62.30
64821;BME280;51256;55.654;37.264;2022-10-26T06:58:15;99561.00;;;4.37;61.92
64821;BME280;51256;55.654;37.264;2022-10-26T07:00:43;99556.41;;;4.54;61.28
64821;BME280;51256;55.654;37.264;2022-10-26T07:03:08;99539.38;;;4.60;61.20
64821;BME280;51256;55.654;37.264;2022-10-26T07:05:34;99562.00;;;4.75;60.89
64821;BME280;51256;55.654;37.264;2022-10-26T07:08:00;99563.38;;;4.81;61.14
64821;BME280;51256;55.654;37.264;2022-10-26T07:10:25;99566.94;;;4.80;60.37
64821;BME280;51256;55.654;37.264;2022-10-26T07:12:51;99541.91;;;4.74;61.05
64821;BME280;51256;55.654;37.264;2022-10-26T07:15:16;99550.41;;;4.91;60.82
64821;BME280;51256;55.654;37.264;2022-10-26T07:17:43;99562.00;;;5.14;61.06
64821;BME280;51256;55.654;37.264;2022-10-26T07:20:10;99559.25;;;5.28;60.36
64821;BME280;51256;55.654;37.264;2022-10-26T07:22:35;99554.69;;;5.30;59.38
64821;BME280;51256;55.654;37.264;2022-10-26T07:25:02;99555.22;;;5.35;58.99
64821;BME280;51256;55.654;37.264;2022-10-26T07:27:27;99552.25;;;5.40;58.92
64821;BME280;51256;55.654;37.264;2022-10-26T07:29:53;99536.75;;;5.48;58.30
64821;BME280;51256;55.654;37.264;2022-10-26T07:32:18;99549.31;;;5.69;58.67
64821;BME280;51256;55.654;37.264;2022-10-26T07:34:44;99553.84;;;5.80;57.87
64821;BME280;51256;55.654;37.264;2022-10-26T07:37:09;99554.16;;;5.75;57.72
64821;BME280;51256;55.654;37.264;2022-10-26T07:39:34;99550.91;;;5.72;58.01
64821;BME280;51256;55.654;37.264;2022-10-26T07:42:00;99549.19;;;5.83;58.10
64821;BME280;51256;55.654;37.264;2022-10-26T07:44:25;99553.03;;;5.91;57.36
64821;BME280;51256;55.654;37.264;2022-10-26T07:46:51;99556.06;;;5.97;57.94
64821;BME280;51256;55.654;37.264;2022-10-26T07:49:16;99546.50;;;5.96;55.91
64821;BME280;51256;55.654;37.264;2022-10-26T07:51:42;99545.50;;;5.73;56.64
64821;BME280;51256;55.654;37.264;2022-10-26T07:54:08;99538.66;;;5.71;56.76
64821;BME280;51256;55.654;37.264;2022-10-26T07:56:34;99540.47;;;5.70;56.68
64821;BME280;51256;55.654;37.264;2022-10-26T07:58:59;99542.66;;;5.76;57.23
64821;BME280;51256;55.654;37.264;2022-10-26T08:01:25;99535.66;;;5.88;56.62
64821;BME280;51256;55.654;37.264;2022-10-26T08:03:51;99547.44;;;5.95;56.22
64821;BME280;51256;55.654;37.264;2022-10-26T08:06:18;99551.38;;;5.90;56.83
64821;BME280;51256;55.654;37.264;2022-10-26T08:08:43;99550.91;;;5.96;56.76
64821;BME280;51256;55.654;37.264;2022-10-26T08:11:08;99553.84;;;5.80;56.35
64821;BME280;51256;55.654;37.264;2022-10-26T08:13:34;99546.06;;;5.65;56.01
64821;BME280;51256;55.654;37.264;2022-10-26T08:16:01;99556.09;;;5.60;56.87
64821;BME280;51256;55.654;37.264;2022-10-26T08:18:28;99557.69;;;5.63;56.46
64821;BME280;51256;55.654;37.264;2022-10-26T08:20:54;99548.75;;;5.52;56.52
64821;BME280;51256;55.654;37.264;2022-10-26T08:23:20;99557.72;;;5.50;56.61
64821;BME280;51256;55.654;37.264;2022-10-26T08:25:46;99557.56;;;5.64;56.82
64821;BME280;51256;55.654;37.264;2022-10-26T08:28:11;99555.59;;;5.79;57.13
64821;BME280;51256;55.654;37.264;2022-10-26T08:30:37;99560.09;;;5.90;56.65
64821;BME280;51256;55.654;37.264;2022-10-26T08:33:04;99553.97;;;6.03;56.12
64821;BME280;51256;55.654;37.264;2022-10-26T08:35:31;99555.03;;;5.87;56.18
64821;BME280;51256;55.654;37.264;2022-10-26T08:37:56;99548.66;;;5.78;56.62
64821;BME280;51256;55.654;37.264;2022-10-26T08:40:33;99551.19;;;5.80;55.88
64821;BME280;51256;55.654;37.264;2022-10-26T08:43:09;99541.75;;;5.64;56.13
64821;BME280;51256;55.654;37.264;2022-10-26T08:45:39;99551.19;;;5.80;56.78
64821;BME280;51256;55.654;37.264;2022-10-26T08:48:16;99558.53;;;5.88;56.20
64821;BME280;51256;55.654;37.264;2022-10-26T08:50:51;99557.34;;;5.92;56.04
64821;BME280;51256;55.654;37.264;2022-10-26T08:58:20;99557.06;;;6.32;55.92
64821;BME280;51256;55.654;37.264;2022-10-26T09:00:47;99566.47;;;6.36;55.24
64821;BME280;51256;55.654;37.264;2022-10-26T09:03:14;99562.88;;;6.13;55.48
64821;BME280;51256;55.654;37.264;2022-10-26T09:09:02;99559.06;;;6.17;55.58
64821;BME280;51256;55.654;37.264;2022-10-26T09:14:16;99559.28;;;6.14;55.48
64821;BME280;51256;55.654;37.264;2022-10-26T09:19:45;99562.47;;;6.30;55.64
64821;BME280;51256;55.654;37.264;2022-10-26T09:24:51;99560.63;;;6.20;55.80
64821;BME280;51256;55.654;37.264;2022-10-26T09:27:42;99558.38;;;6.02;55.95
64821;BME280;51256;55.654;37.264;2022-10-26T09:30:17;99557.72;;;6.11;56.57
64821;BME280;51256;55.654;37.264;2022-10-26T09:32:49;99559.88;;;6.06;56.04
64821;BME280;51256;55.654;37.264;2022-10-26T09:37:51;99559.38;;;5.88;56.75
64821;BME280;51256;55.654;37.264;2022-10-26T09:40:35;99569.66;;;6.04;56.36
64821;BME280;51256;55.654;37.264;2022-10-26T09:43:14;99559.47;;;5.99;56.73
64821;BME280;51256;55.654;37.264;2022-10-26T09:45:50;99564.72;;;5.99;56.47
64821;BME280;51256;55.654;37.264;2022-10-26T09:50:52;99547.88;;;6.13;56.81
64821;BME280;51256;55.654;37.264;2022-10-26T09:53:18;99546.16;;;6.25;56.59
64821;BME280;51256;55.654;37.264;2022-10-26T09:55:45;99553.00;;;6.28;55.86
64821;BME280;51256;55.654;37.264;2022-10-26T09:58:31;99558.25;;;6.28;55.97
64821;BME280;51256;55.654;37.264;2022-10-26T10:00:58;99553.56;;;6.20;56.32
64821;BME280;51256;55.654;37.264;2022-10-26T10:03:27;99560.03;;;6.16;55.99
64821;BME280;51256;55.654;37.264;2022-10-26T10:05:53;99553.91;;;6.15;56.14
64821;BME280;51256;55.654;37.264;2022-10-26T10:08:38;99555.75;;;6.26;56.13
64821;BME280;51256;55.654;37.264;2022-10-26T10:11:12;99555.09;;;6.47;55.88
64821;BME280;51256;55.654;37.264;2022-10-26T10:13:40;99555.22;;;6.57;55.53
64821;BME280;51256;55.654;37.264;2022-10-26T10:18:36;99555.03;;;6.71;56.02
64821;BME280;51256;55.654;37.264;2022-10-26T10:21:03;99553.56;;;6.67;55.27
64821;BME280;51256;55.654;37.264;2022-10-26T10:23:56;99552.28;;;6.84;55.28
64821;BME280;51256;55.654;37.264;2022-10-26T10:26:22;99556.75;;;6.84;54.97
64821;BME280;51256;55.654;37.264;2022-10-26T10:28:59;99555.16;;;6.81;54.90
64821;BME280;51256;55.654;37.264;2022-10-26T10:31:32;99549.38;;;6.76;54.87
64821;BME280;51256;55.654;37.264;2022-10-26T10:33:58;99549.28;;;6.77;55.14
64821;BME280;51256;55.654;37.264;2022-10-26T10:36:26;99544.84;;;6.78;54.79
64821;BME280;51256;55.654;37.264;2022-10-26T10:38:53;99552.63;;;6.79;55.16
64821;BME280;51256;55.654;37.264;2022-10-26T10:41:31;99547.94;;;6.72;55.38
64821;BME280;51256;55.654;37.264;2022-10-26T10:46:32;99547.72;;;6.75;55.70
64821;BME280;51256;55.654;37.264;2022-10-26T10:49:04;99538.47;;;6.69;55.28
64821;BME280;51256;55.654;37.264;2022-10-26T10:51:35;99543.16;;;6.77;55.24
64821;BME280;51256;55.654;37.264;2022-10-26T10:54:03;99544.13;;;6.76;55.38
64821;BME280;51256;55.654;37.264;2022-10-26T11:07:23;99549.16;;;6.68;55.40
64821;BME280;51256;55.654;37.264;2022-10-26T11:09:52;99550.84;;;6.69;55.41
64821;BME280;51256;55.654;37.264;2022-10-26T11:12:31;99548.69;;;6.74;55.54
64821;BME280;51256;55.654;37.264;2022-10-26T11:15:05;99523.84;;;6.65;55.14
64821;BME280;51256;55.654;37.264;2022-10-26T11:20:16;99542.34;;;6.76;55.42
64821;BME280;51256;55.654;37.264;2022-10-26T11:25:27;99552.16;;;6.86;54.96
64821;BME280;51256;55.654;37.264;2022-10-26T11:28:09;99545.34;;;6.94;54.97
64821;BME280;51256;55.654;37.264;2022-10-26T11:30:42;99541.88;;;6.94;55.20
64821;BME280;51256;55.654;37.264;2022-10-26T11:33:26;99535.38;;;6.98;54.88
64821;BME280;51256;55.654;37.264;2022-10-26T11:36:02;99534.06;;;6.92;54.87
64821;BME280;51256;55.654;37.264;2022-10-26T11:38:48;99534.44;;;6.88;54.14
64821;BME280;51256;55.654;37.264;2022-10-26T11:41:38;99541.25;;;6.79;54.42
64821;BME280;51256;55.654;37.264;2022-10-26T11:45:16;99548.91;;;6.82;54.10
64821;BME280;51256;55.654;37.264;2022-10-26T11:47:20;99522.06;;;6.77;54.01
64821;BME280;51256;55.654;37.264;2022-10-26T11:49:52;99534.56;;;6.86;53.38
64821;BME280;51256;55.654;37.264;2022-10-26T11:52:28;99527.56;;;6.74;53.16
64821;BME280;51256;55.654;37.264;2022-10-26T11:54:58;99523.72;;;6.67;53.30
64821;BME280;51256;55.654;37.264;2022-10-26T11:57:31;99527.91;;;6.58;52.88
64821;BME280;51256;55.654;37.264;2022-10-26T12:00:00;99529.34;;;6.62;53.56
64821;BME280;51256;55.654;37.264;2022-10-26T12:02:27;99520.00;;;6.58;52.93
64821;BME280;51256;55.654;37.264;2022-10-26T12:05:02;99519.38;;;6.54;53.37
64821;BME280;51256;55.654;37.264;2022-10-26T12:07:32;99523.22;;;6.50;53.56
64821;BME280;51256;55.654;37.264;2022-10-26T12:10:00;99516.13;;;6.51;53.34
64821;BME280;51256;55.654;37.264;2022-10-26T12:12:49;99525.59;;;6.53;53.85
64821;BME280;51256;55.654;37.264;2022-10-26T12:21:03;99523.28;;;6.37;54.23
64821;BME280;51256;55.654;37.264;2022-10-26T12:23:35;99518.38;;;6.32;54.13
64821;BME280;51256;55.654;37.264;2022-10-26T12:34:00;99516.09;;;6.28;54.46
64821;BME280;51256;55.654;37.264;2022-10-26T12:39:30;99522.28;;;6.15;54.61
64821;BME280;51256;55.654;37.264;2022-10-26T13:06:52;99509.69;;;5.71;55.93
64821;BME280;51256;55.654;37.264;2022-10-26T13:09:27;99517.84;;;5.67;56.47
64821;BME280;51256;55.654;37.264;2022-10-26T13:11:54;99517.09;;;5.65;56.43
64821;BME280;51256;55.654;37.264;2022-10-26T13:14:24;99510.59;;;5.58;56.62
64821;BME280;51256;55.654;37.264;2022-10-26T13:16:51;99517.97;;;5.53;56.31
64821;BME280;51256;55.654;37.264;2022-10-26T13:19:24;99516.28;;;5.52;56.60
64821;BME280;51256;55.654;37.264;2022-10-26T13:21:50;99517.47;;;5.48;56.92
64821;BME280;51256;55.654;37.264;2022-10-26T13:24:18;99513.81;;;5.38;57.15
64821;BME280;51256;55.654;37.264;2022-10-26T13:32:32;99517.97;;;5.29;57.89
64821;BME280;51256;55.654;37.264;2022-10-26T13:35:00;99516.69;;;5.22;57.76
64821;BME280;51256;55.654;37.264;2022-10-26T13:37:30;99516.19;;;5.16;57.69
64821;BME280;51256;55.654;37.264;2022-10-26T13:39:58;99521.78;;;5.12;58.18
64821;BME280;51256;55.654;37.264;2022-10-26T13:42:26;99522.81;;;5.09;58.77
64821;BME280;51256;55.654;37.264;2022-10-26T13:45:02;99518.63;;;5.07;58.54
64821;BME280;51256;55.654;37.264;2022-10-26T13:47:57;99513.91;;;4.99;58.78
64821;BME280;51256;55.654;37.264;2022-10-26T13:50:26;99509.19;;;4.91;58.91
64821;BME280;51256;55.654;37.264;2022-10-26T13:53:06;99520.00;;;4.86;58.47
64821;BME280;51256;55.654;37.264;2022-10-26T13:56:05;99509.19;;;4.78;59.23
64821;BME280;51256;55.654;37.264;2022-10-26T13:58:53;99514.66;;;4.75;59.53
64821;BME280;51256;55.654;37.264;2022-10-26T14:01:23;99520.03;;;4.74;59.81
64821;BME280;51256;55.654;37.264;2022-10-26T14:03:49;99523.50;;;4.74;59.93
64821;BME280;51256;55.654;37.264;2022-10-26T14:06:36;99515.94;;;4.69;59.82
64821;BME280;51256;55.654;37.264;2022-10-26T14:09:13;99527.47;;;4.67;60.04
64821;BME280;51256;55.654;37.264;2022-10-26T14:11:53;99525.19;;;4.62;60.20
64821;BME280;51256;55.654;37.264;2022-10-26T14:14:22;99520.13;;;4.59;60.65
64821;BME280;51256;55.654;37.264;2022-10-26T14:16:51;99511.69;;;4.54;60.55
64821;BME280;51256;55.654;37.264;2022-10-26T14:19:28;99524.66;;;4.57;60.44
64821;BME280;51256;55.654;37.264;2022-10-26T14:21:55;99528.34;;;4.54;60.96
64821;BME280;51256;55.654;37.264;2022-10-26T14:26:47;99522.53;;;4.49;61.02
64821;BME280;51256;55.654;37.264;2022-10-26T14:29:19;99529.56;;;4.49;61.42
64821;BME280;51256;55.654;37.264;2022-10-26T14:31:46;99523.03;;;4.42;61.63
64821;BME280;51256;55.654;37.264;2022-10-26T14:34:12;99529.16;;;4.42;61.98
64821;BME280;51256;55.654;37.264;2022-10-26T14:36:42;99536.19;;;4.42;61.88
64821;BME280;51256;55.654;37.264;2022-10-26T14:41:55;99518.81;;;4.26;62.32
64821;BME280;51256;55.654;37.264;2022-10-26T14:44:23;99536.06;;;4.30;62.91
64821;BME280;51256;55.654;37.264;2022-10-26T14:46:50;99531.84;;;4.28;62.71
64821;BME280;51256;55.654;37.264;2022-10-26T14:49:26;99543.22;;;4.28;63.04
64821;BME280;51256;55.654;37.264;2022-10-26T14:52:03;99535.53;;;4.25;62.94
64821;BME280;51256;55.654;37.264;2022-10-26T14:54:29;99541.53;;;4.27;63.27
64821;BME280;51256;55.654;37.264;2022-10-26T14:56:55;99545.00;;;4.28;63.28
64821;BME280;51256;55.654;37.264;2022-10-26T14:59:27;99543.22;;;4.28;63.01
64821;BME280;51256;55.654;37.264;2022-10-26T15:02:15;99535.25;;;4.30;63.22
64821;BME280;51256;55.654;37.264;2022-10-26T15:04:57;99536.28;;;4.27;63.49
64821;BME280;51256;55.654;37.264;2022-10-26T15:07:23;99538.91;;;4.27;63.52
64821;BME280;51256;55.654;37.264;2022-10-26T15:09:58;99529.53;;;4.23;63.81
64821;BME280;51256;55.654;37.264;2022-10-26T15:12:35;99530.16;;;4.27;63.88
64821;BME280;51256;55.654;37.264;2022-10-26T15:17:41;99539.84;;;4.26;63.85
64821;BME280;51256;55.654;37.264;2022-10-26T15:20:15;99544.25;;;4.26;63.67
64821;BME280;51256;55.654;37.264;2022-10-26T15:22:42;99536.69;;;4.21;64.11
64821;BME280;51256;55.654;37.264;2022-10-26T15:25:17;99544.25;;;4.26;64.21
64821;BME280;51256;55.654;37.264;2022-10-26T15:27:45;99535.66;;;4.24;63.98
64821;BME280;51256;55.654;37.264;2022-10-26T15:32:46;99539.97;;;4.25;64.11
64821;BME280;51256;55.654;37.264;2022-10-26T15:37:46;99535.66;;;4.24;64.14
64821;BME280;51256;55.654;37.264;2022-10-26T15:40:12;99539.31;;;4.21;64.67
64821;BME280;51256;55.654;37.264;2022-10-26T15:42:39;99530.97;;;4.14;64.30